WJA384 CYWG-CYYZ
Flight info
| Callsign | WJA384 |
|---|---|
| Flight time | 2h 1m |
| Altitude | 37000 |
| Route | RORMA DCT AXOMA DCT SIDPO DCT DEGVA DCT AGLIN DCT OTNIK BOXUM7 |
| Aircraft | B738/M-SDE2E3FGHIRWXY/LB1 |
Departure
| Time | 2026-05-04 09:17 |
|---|---|
| Airport | Winnipeg / James Armstrong Richardson International Airport (CYWG) |
Arrival
| Time | 2026-05-04 11:19 |
|---|---|
| Airport | Toronto Pearson International Airport (CYYZ) |
| Time | Latitude | Longitude | Altitude | Speed | Heading |
|---|---|---|---|---|---|
| 2026-05-04 09:09 | 49.90756 | -97.22513 | 785 ft | 0 kts | 174° |
| 2026-05-04 09:11 | 49.90754 | -97.22517 | 785 ft | 1 kts | 210° |
| 2026-05-04 09:11 | 49.90747 | -97.22587 | 785 ft | 15 kts | 265° |
| 2026-05-04 09:11 | 49.90732 | -97.22763 | 785 ft | 18 kts | 258° |
| 2026-05-04 09:12 | 49.90705 | -97.22979 | 785 ft | 21 kts | 259° |
| 2026-05-04 09:12 | 49.90678 | -97.23201 | 785 ft | 21 kts | 259° |
| 2026-05-04 09:14 | 49.89946 | -97.22956 | 785 ft | 16 kts | 138° |
| 2026-05-04 09:14 | 49.89868 | -97.22830 | 785 ft | 16 kts | 130° |
| 2026-05-04 09:14 | 49.89799 | -97.22701 | 785 ft | 15 kts | 130° |
| 2026-05-04 09:14 | 49.89732 | -97.22577 | 785 ft | 15 kts | 130° |
| 2026-05-04 09:15 | 49.89648 | -97.22585 | 785 ft | 14 kts | 224° |
| 2026-05-04 09:15 | 49.89608 | -97.22654 | 785 ft | 0 kts | 229° |
| 2026-05-04 09:17 | 49.92524 | -97.26590 | 2414 ft | 163 kts | 336° |
| 2026-05-04 09:18 | 49.93724 | -97.26608 | 2945 ft | 190 kts | 14° |
| 2026-05-04 09:18 | 49.94808 | -97.25325 | 3387 ft | 220 kts | 51° |
| 2026-05-04 09:18 | 49.95198 | -97.22850 | 3663 ft | 255 kts | 89° |
| 2026-05-04 09:18 | 49.95021 | -97.20011 | 4168 ft | 275 kts | 90° |
| 2026-05-04 09:19 | 49.94863 | -97.16980 | 4822 ft | 286 kts | 89° |
| 2026-05-04 09:19 | 49.94741 | -97.13884 | 5650 ft | 289 kts | 88° |
| 2026-05-04 09:19 | 49.94641 | -97.10751 | 6430 ft | 295 kts | 87° |
| 2026-05-04 09:19 | 49.94558 | -97.07545 | 7229 ft | 299 kts | 87° |
| 2026-05-04 09:20 | 49.94489 | -97.04286 | 8015 ft | 304 kts | 87° |
| 2026-05-04 09:20 | 49.94424 | -97.00991 | 8872 ft | 306 kts | 88° |
| 2026-05-04 09:20 | 49.94361 | -96.97666 | 9632 ft | 311 kts | 88° |
| 2026-05-04 09:20 | 49.94298 | -96.94264 | 10336 ft | 319 kts | 88° |
| 2026-05-04 09:21 | 49.94239 | -96.90744 | 10566 ft | 344 kts | 88° |
| 2026-05-04 09:21 | 49.94172 | -96.86865 | 10917 ft | 363 kts | 88° |
| 2026-05-04 09:21 | 49.94101 | -96.82908 | 11552 ft | 370 kts | 88° |
| 2026-05-04 09:21 | 49.94027 | -96.78942 | 12307 ft | 374 kts | 88° |
| 2026-05-04 09:22 | 49.93950 | -96.74880 | 13016 ft | 379 kts | 88° |
| 2026-05-04 09:22 | 49.93876 | -96.70767 | 13706 ft | 383 kts | 88° |
| 2026-05-04 09:22 | 49.93835 | -96.66599 | 14375 ft | 388 kts | 87° |
| 2026-05-04 09:22 | 49.93807 | -96.62396 | 15072 ft | 391 kts | 87° |
| 2026-05-04 09:23 | 49.93779 | -96.58143 | 15737 ft | 395 kts | 88° |
| 2026-05-04 09:23 | 49.93747 | -96.53861 | 16383 ft | 399 kts | 88° |
| 2026-05-04 09:23 | 49.93709 | -96.49515 | 16984 ft | 404 kts | 88° |
| 2026-05-04 09:23 | 49.93669 | -96.45134 | 17597 ft | 409 kts | 88° |
| 2026-05-04 09:25 | 49.93386 | -96.13411 | 21635 ft | 432 kts | 88° |
| 2026-05-04 09:25 | 49.93340 | -96.08737 | 22138 ft | 435 kts | 88° |
| 2026-05-04 09:26 | 49.93291 | -96.04025 | 22665 ft | 437 kts | 88° |
| 2026-05-04 09:26 | 49.93241 | -95.99294 | 23136 ft | 441 kts | 88° |
| 2026-05-04 09:26 | 49.93189 | -95.94512 | 23575 ft | 445 kts | 88° |
| 2026-05-04 09:26 | 49.93134 | -95.89689 | 24044 ft | 448 kts | 88° |
| 2026-05-04 09:27 | 49.93076 | -95.84854 | 24502 ft | 450 kts | 88° |
| 2026-05-04 09:27 | 49.93015 | -95.79968 | 24910 ft | 454 kts | 89° |
| 2026-05-04 09:27 | 49.92952 | -95.75045 | 25297 ft | 458 kts | 89° |
| 2026-05-04 09:27 | 49.92887 | -95.70086 | 25676 ft | 461 kts | 89° |
| 2026-05-04 09:28 | 49.92820 | -95.65156 | 26028 ft | 465 kts | 89° |
| 2026-05-04 09:28 | 49.92749 | -95.60092 | 26382 ft | 469 kts | 89° |
| 2026-05-04 09:28 | 49.92676 | -95.55019 | 26723 ft | 472 kts | 89° |
| 2026-05-04 09:28 | 49.92601 | -95.49897 | 27051 ft | 476 kts | 89° |
| 2026-05-04 09:29 | 49.92523 | -95.44734 | 27354 ft | 479 kts | 90° |
| 2026-05-04 09:29 | 49.92438 | -95.39540 | 27661 ft | 483 kts | 90° |
| 2026-05-04 09:29 | 49.92345 | -95.34324 | 27972 ft | 486 kts | 90° |
| 2026-05-04 09:29 | 49.92247 | -95.29066 | 28279 ft | 489 kts | 90° |
| 2026-05-04 09:30 | 49.92147 | -95.23762 | 28566 ft | 493 kts | 91° |
| 2026-05-04 09:30 | 49.92044 | -95.18436 | 28852 ft | 496 kts | 91° |
| 2026-05-04 09:30 | 49.91939 | -95.13078 | 29136 ft | 498 kts | 91° |
| 2026-05-04 09:30 | 49.91833 | -95.07755 | 29398 ft | 501 kts | 91° |
| 2026-05-04 09:31 | 49.91723 | -95.02331 | 29660 ft | 504 kts | 91° |
| 2026-05-04 09:31 | 49.91595 | -94.96879 | 29919 ft | 507 kts | 94° |
| 2026-05-04 09:31 | 49.91115 | -94.91457 | 30169 ft | 508 kts | 103° |
| 2026-05-04 09:31 | 49.90138 | -94.86189 | 30419 ft | 508 kts | 114° |
| 2026-05-04 09:32 | 49.88771 | -94.81122 | 30720 ft | 508 kts | 116° |
| 2026-05-04 09:32 | 49.87363 | -94.76105 | 31064 ft | 508 kts | 116° |
| 2026-05-04 09:34 | 49.77677 | -94.41207 | 33405 ft | 502 kts | 115° |
| 2026-05-04 09:34 | 49.76306 | -94.36234 | 33691 ft | 502 kts | 115° |
| 2026-05-04 09:34 | 49.74932 | -94.31264 | 33975 ft | 501 kts | 115° |
| 2026-05-04 09:34 | 49.73564 | -94.26324 | 34294 ft | 500 kts | 115° |
| 2026-05-04 09:35 | 49.72192 | -94.21385 | 34590 ft | 499 kts | 115° |
| 2026-05-04 09:35 | 49.70822 | -94.16465 | 34865 ft | 498 kts | 115° |
| 2026-05-04 09:35 | 49.69450 | -94.11550 | 35122 ft | 498 kts | 115° |
| 2026-05-04 09:35 | 49.68077 | -94.06638 | 35344 ft | 498 kts | 115° |
| 2026-05-04 09:37 | 49.58416 | -93.72373 | 36317 ft | 499 kts | 115° |
| 2026-05-04 09:37 | 49.57023 | -93.67471 | 36314 ft | 498 kts | 115° |
| 2026-05-04 09:38 | 49.54251 | -93.57739 | 36303 ft | 495 kts | 115° |
| 2026-05-04 09:38 | 49.51477 | -93.48050 | 36296 ft | 494 kts | 116° |
| 2026-05-04 09:39 | 49.48701 | -93.38396 | 36298 ft | 493 kts | 116° |
| 2026-05-04 09:39 | 49.45939 | -93.28826 | 36296 ft | 493 kts | 116° |
| 2026-05-04 09:40 | 49.43144 | -93.19179 | 36296 ft | 495 kts | 116° |
| 2026-05-04 09:40 | 49.40327 | -93.09505 | 36293 ft | 497 kts | 116° |
| 2026-05-04 09:42 | 49.28867 | -92.70499 | 36290 ft | 504 kts | 117° |
| 2026-05-04 09:43 | 49.25980 | -92.60773 | 36288 ft | 505 kts | 117° |
| 2026-05-04 09:43 | 49.23068 | -92.51007 | 36289 ft | 504 kts | 117° |
| 2026-05-04 09:44 | 49.20155 | -92.41268 | 36282 ft | 503 kts | 117° |
| 2026-05-04 09:46 | 49.08532 | -92.02786 | 36303 ft | 497 kts | 118° |
| 2026-05-04 09:46 | 49.05616 | -91.93235 | 36300 ft | 497 kts | 118° |
| 2026-05-04 09:47 | 49.02684 | -91.83676 | 36309 ft | 497 kts | 118° |
| 2026-05-04 09:49 | 48.90978 | -91.45814 | 36295 ft | 504 kts | 118° |
| 2026-05-04 09:51 | 48.80408 | -91.12120 | 36283 ft | 504 kts | 118° |
| 2026-05-04 09:51 | 48.77373 | -91.02534 | 36290 ft | 504 kts | 118° |
| 2026-05-04 09:52 | 48.74354 | -90.93029 | 36288 ft | 503 kts | 118° |
| 2026-05-04 09:52 | 48.71309 | -90.83482 | 36290 ft | 503 kts | 118° |
| 2026-05-04 09:53 | 48.68260 | -90.73957 | 36287 ft | 502 kts | 118° |
| 2026-05-04 09:53 | 48.65205 | -90.64449 | 36290 ft | 502 kts | 118° |
| 2026-05-04 09:54 | 48.62141 | -90.54945 | 36290 ft | 502 kts | 118° |
| 2026-05-04 09:54 | 48.59072 | -90.45470 | 36285 ft | 502 kts | 119° |
| 2026-05-04 09:55 | 48.55996 | -90.36005 | 36293 ft | 502 kts | 118° |
| 2026-05-04 09:55 | 48.52909 | -90.26535 | 36292 ft | 503 kts | 118° |
| 2026-05-04 09:56 | 48.49833 | -90.17132 | 36267 ft | 504 kts | 119° |
| 2026-05-04 09:56 | 48.46706 | -90.07628 | 36261 ft | 505 kts | 119° |
| 2026-05-04 09:57 | 48.43572 | -89.98135 | 36253 ft | 506 kts | 118° |
| 2026-05-04 09:57 | 48.40967 | -89.90260 | 36253 ft | 506 kts | 119° |
| 2026-05-04 09:58 | 48.37817 | -89.80766 | 36244 ft | 506 kts | 119° |
| 2026-05-04 09:58 | 48.34678 | -89.71344 | 36239 ft | 506 kts | 119° |
| 2026-05-04 10:00 | 48.22336 | -89.33389 | 36237 ft | 508 kts | 114° |
| 2026-05-04 10:04 | 48.02907 | -88.65668 | 36276 ft | 504 kts | 115° |
| 2026-05-04 10:04 | 48.00111 | -88.56136 | 36286 ft | 504 kts | 115° |
| 2026-05-04 10:05 | 47.97288 | -88.46552 | 36298 ft | 504 kts | 115° |
| 2026-05-04 10:05 | 47.94460 | -88.36982 | 36336 ft | 504 kts | 115° |
| 2026-05-04 10:06 | 47.91621 | -88.27421 | 36344 ft | 504 kts | 115° |
| 2026-05-04 10:06 | 47.88776 | -88.17872 | 36358 ft | 504 kts | 115° |
| 2026-05-04 10:08 | 47.78755 | -87.84536 | 36382 ft | 506 kts | 115° |
| 2026-05-04 10:08 | 47.75860 | -87.74991 | 36387 ft | 506 kts | 115° |
| 2026-05-04 10:09 | 47.72960 | -87.65462 | 36395 ft | 506 kts | 115° |
| 2026-05-04 10:09 | 47.70046 | -87.55924 | 36394 ft | 506 kts | 115° |
| 2026-05-04 10:10 | 47.67128 | -87.46408 | 36399 ft | 506 kts | 115° |
| 2026-05-04 10:10 | 47.64206 | -87.36920 | 36396 ft | 506 kts | 115° |
| 2026-05-04 10:11 | 47.61272 | -87.27427 | 36393 ft | 506 kts | 115° |
| 2026-05-04 10:11 | 47.58333 | -87.17958 | 36401 ft | 505 kts | 115° |
| 2026-05-04 10:12 | 47.55410 | -87.08570 | 36400 ft | 504 kts | 115° |
| 2026-05-04 10:12 | 47.52468 | -86.99154 | 36410 ft | 504 kts | 115° |
| 2026-05-04 10:13 | 47.49521 | -86.89761 | 36406 ft | 503 kts | 115° |
| 2026-05-04 10:13 | 47.46579 | -86.80416 | 36415 ft | 502 kts | 115° |
| 2026-05-04 10:14 | 47.43630 | -86.71083 | 36461 ft | 499 kts | 115° |
| 2026-05-04 10:16 | 47.31809 | -86.34027 | 36494 ft | 499 kts | 115° |
| 2026-05-04 10:16 | 47.28847 | -86.24822 | 36510 ft | 500 kts | 115° |
| 2026-05-04 10:17 | 47.25862 | -86.15575 | 36514 ft | 498 kts | 115° |
| 2026-05-04 10:19 | 47.14095 | -85.79482 | 36527 ft | 487 kts | 115° |
| 2026-05-04 10:19 | 47.11165 | -85.70571 | 36526 ft | 487 kts | 115° |
| 2026-05-04 10:20 | 47.08216 | -85.61615 | 36534 ft | 488 kts | 115° |
| 2026-05-04 10:20 | 47.05248 | -85.52653 | 36543 ft | 488 kts | 115° |
| 2026-05-04 10:21 | 47.02273 | -85.43690 | 36552 ft | 489 kts | 115° |
| 2026-05-04 10:21 | 46.99293 | -85.34751 | 36572 ft | 488 kts | 115° |
| 2026-05-04 10:22 | 46.94799 | -85.21346 | 36573 ft | 488 kts | 115° |
| 2026-05-04 10:23 | 46.91803 | -85.12428 | 36579 ft | 488 kts | 115° |
| 2026-05-04 10:25 | 46.79724 | -84.76813 | 36591 ft | 490 kts | 116° |
| 2026-05-04 10:25 | 46.76685 | -84.67921 | 36590 ft | 489 kts | 116° |
| 2026-05-04 10:26 | 46.73634 | -84.59041 | 36602 ft | 488 kts | 116° |
| 2026-05-04 10:26 | 46.70608 | -84.50255 | 36607 ft | 488 kts | 116° |
| 2026-05-04 10:27 | 46.67558 | -84.41424 | 36610 ft | 488 kts | 116° |
| 2026-05-04 10:27 | 46.64503 | -84.32603 | 36600 ft | 487 kts | 116° |
| 2026-05-04 10:28 | 46.61443 | -84.23814 | 36610 ft | 486 kts | 116° |
| 2026-05-04 10:28 | 46.58383 | -84.15049 | 36603 ft | 486 kts | 116° |
| 2026-05-04 10:29 | 46.55319 | -84.06301 | 36609 ft | 485 kts | 116° |
| 2026-05-04 10:29 | 46.52254 | -83.97572 | 36611 ft | 484 kts | 116° |
| 2026-05-04 10:30 | 46.49184 | -83.88861 | 36607 ft | 484 kts | 116° |
| 2026-05-04 10:30 | 46.46106 | -83.80154 | 36615 ft | 484 kts | 116° |
| 2026-05-04 10:31 | 46.43046 | -83.71511 | 36615 ft | 485 kts | 116° |
| 2026-05-04 10:32 | 46.30088 | -83.42924 | 36629 ft | 487 kts | 126° |
| 2026-05-04 10:33 | 46.26138 | -83.34947 | 36626 ft | 487 kts | 126° |
| 2026-05-04 10:33 | 46.22200 | -83.26949 | 36629 ft | 488 kts | 126° |
| 2026-05-04 10:34 | 46.18261 | -83.18976 | 36630 ft | 488 kts | 126° |
| 2026-05-04 10:34 | 46.14331 | -83.11052 | 36631 ft | 488 kts | 126° |
| 2026-05-04 10:35 | 46.10376 | -83.03101 | 36637 ft | 487 kts | 126° |
| 2026-05-04 10:35 | 46.06416 | -82.95178 | 36638 ft | 487 kts | 126° |
| 2026-05-04 10:36 | 46.02455 | -82.87273 | 36638 ft | 486 kts | 126° |
| 2026-05-04 10:36 | 45.98495 | -82.79386 | 36647 ft | 486 kts | 126° |
| 2026-05-04 10:37 | 45.94537 | -82.71521 | 36645 ft | 485 kts | 126° |
| 2026-05-04 10:37 | 45.90575 | -82.63675 | 36643 ft | 485 kts | 126° |
| 2026-05-04 10:39 | 45.76703 | -82.36378 | 36648 ft | 483 kts | 127° |
| 2026-05-04 10:40 | 45.72729 | -82.28604 | 36642 ft | 483 kts | 127° |
| 2026-05-04 10:40 | 45.68778 | -82.20895 | 36649 ft | 483 kts | 127° |
| 2026-05-04 10:41 | 45.64808 | -82.13169 | 36646 ft | 482 kts | 127° |
| 2026-05-04 10:41 | 45.60740 | -82.05530 | 36645 ft | 482 kts | 134° |
| 2026-05-04 10:42 | 45.55914 | -81.98929 | 36654 ft | 481 kts | 139° |
| 2026-05-04 10:42 | 45.50966 | -81.92503 | 36661 ft | 481 kts | 139° |
| 2026-05-04 10:43 | 45.46048 | -81.86011 | 36553 ft | 483 kts | 139° |
| 2026-05-04 10:44 | 45.29728 | -81.64294 | 33434 ft | 475 kts | 139° |
| 2026-05-04 10:45 | 45.27317 | -81.61104 | 33008 ft | 473 kts | 139° |
| 2026-05-04 10:45 | 45.24906 | -81.57920 | 32312 ft | 477 kts | 139° |
| 2026-05-04 10:45 | 45.22464 | -81.54702 | 31800 ft | 477 kts | 138° |
| 2026-05-04 10:45 | 45.20031 | -81.51498 | 31305 ft | 476 kts | 138° |
| 2026-05-04 10:46 | 45.17609 | -81.48311 | 30901 ft | 473 kts | 138° |
| 2026-05-04 10:46 | 45.15207 | -81.45153 | 30485 ft | 471 kts | 137° |
| 2026-05-04 10:46 | 45.12808 | -81.42002 | 30076 ft | 468 kts | 137° |
| 2026-05-04 10:46 | 45.10431 | -81.38884 | 29671 ft | 465 kts | 137° |
| 2026-05-04 10:47 | 45.08065 | -81.35783 | 29266 ft | 462 kts | 137° |
| 2026-05-04 10:47 | 45.05714 | -81.32699 | 28848 ft | 459 kts | 137° |
| 2026-05-04 10:47 | 45.03410 | -81.29687 | 28441 ft | 456 kts | 137° |
| 2026-05-04 10:47 | 45.01087 | -81.26655 | 28016 ft | 453 kts | 137° |
| 2026-05-04 10:49 | 44.85213 | -81.06028 | 25157 ft | 434 kts | 138° |
| 2026-05-04 10:49 | 44.82996 | -81.03160 | 24749 ft | 431 kts | 138° |
| 2026-05-04 10:50 | 44.80796 | -81.00314 | 24351 ft | 428 kts | 138° |
| 2026-05-04 10:51 | 44.65732 | -80.80918 | 21586 ft | 410 kts | 139° |
| 2026-05-04 10:52 | 44.63632 | -80.78225 | 21197 ft | 408 kts | 140° |
| 2026-05-04 10:52 | 44.61545 | -80.75552 | 20802 ft | 405 kts | 140° |
| 2026-05-04 10:52 | 44.59465 | -80.72894 | 20486 ft | 401 kts | 140° |
| 2026-05-04 10:54 | 44.45459 | -80.55054 | 18172 ft | 377 kts | 141° |
| 2026-05-04 10:54 | 44.43516 | -80.52586 | 17821 ft | 375 kts | 141° |
| 2026-05-04 10:56 | 44.30196 | -80.35745 | 15322 ft | 363 kts | 142° |
| 2026-05-04 10:56 | 44.28326 | -80.33388 | 14965 ft | 361 kts | 142° |
| 2026-05-04 10:56 | 44.26466 | -80.31048 | 14606 ft | 359 kts | 142° |
| 2026-05-04 10:57 | 44.24617 | -80.28721 | 14262 ft | 357 kts | 142° |
| 2026-05-04 10:57 | 44.22779 | -80.26410 | 13909 ft | 354 kts | 142° |
| 2026-05-04 10:57 | 44.20955 | -80.24119 | 13566 ft | 352 kts | 142° |
| 2026-05-04 10:57 | 44.19145 | -80.21847 | 13219 ft | 349 kts | 143° |
| 2026-05-04 10:58 | 44.17343 | -80.19584 | 12884 ft | 347 kts | 143° |
| 2026-05-04 10:58 | 44.15562 | -80.17352 | 12581 ft | 343 kts | 143° |
| 2026-05-04 10:58 | 44.13816 | -80.15162 | 12254 ft | 340 kts | 143° |
| 2026-05-04 10:58 | 44.12063 | -80.12966 | 11911 ft | 338 kts | 143° |
| 2026-05-04 10:59 | 44.10323 | -80.10788 | 11572 ft | 336 kts | 143° |
| 2026-05-04 10:59 | 44.08608 | -80.08641 | 11245 ft | 333 kts | 143° |
| 2026-05-04 10:59 | 44.06890 | -80.06491 | 10912 ft | 331 kts | 143° |
| 2026-05-04 10:59 | 44.05183 | -80.04358 | 10573 ft | 329 kts | 143° |
| 2026-05-04 11:00 | 44.03486 | -80.02245 | 10323 ft | 325 kts | 143° |
| 2026-05-04 11:01 | 43.91371 | -79.90883 | 8690 ft | 291 kts | 154° |
| 2026-05-04 11:02 | 43.89670 | -79.89401 | 8492 ft | 286 kts | 153° |
| 2026-05-04 11:02 | 43.88009 | -79.87929 | 8350 ft | 280 kts | 154° |
| 2026-05-04 11:05 | 43.81910 | -79.62014 | 5710 ft | 248 kts | 40° |
| 2026-05-04 11:06 | 43.83116 | -79.60274 | 5613 ft | 252 kts | 41° |
| 2026-05-04 11:06 | 43.84329 | -79.58517 | 5524 ft | 253 kts | 41° |
| 2026-05-04 11:06 | 43.85543 | -79.56753 | 5410 ft | 253 kts | 42° |
| 2026-05-04 11:06 | 43.86752 | -79.54994 | 5312 ft | 252 kts | 42° |
| 2026-05-04 11:08 | 43.95086 | -79.42800 | 4627 ft | 246 kts | 42° |
| 2026-05-04 11:10 | 43.94734 | -79.31845 | 4022 ft | 210 kts | 195° |
| 2026-05-04 11:12 | 43.87492 | -79.39113 | 3538 ft | 175 kts | 208° |
| 2026-05-04 11:12 | 43.86362 | -79.39766 | 3499 ft | 178 kts | 207° |
| 2026-05-04 11:12 | 43.85222 | -79.40437 | 3428 ft | 178 kts | 213° |
| 2026-05-04 11:12 | 43.84369 | -79.41585 | 3375 ft | 172 kts | 232° |
| 2026-05-04 11:13 | 43.83571 | -79.42830 | 3276 ft | 172 kts | 230° |
| 2026-05-04 11:13 | 43.82770 | -79.44061 | 3198 ft | 171 kts | 230° |
| 2026-05-04 11:13 | 43.81952 | -79.45279 | 3101 ft | 175 kts | 228° |
| 2026-05-04 11:13 | 43.81110 | -79.46511 | 3032 ft | 175 kts | 228° |
| 2026-05-04 11:14 | 43.80275 | -79.47726 | 3000 ft | 172 kts | 227° |
| 2026-05-04 11:14 | 43.79453 | -79.48918 | 2996 ft | 169 kts | 228° |
| 2026-05-04 11:14 | 43.78673 | -79.50110 | 2703 ft | 166 kts | 227° |
| 2026-05-04 11:16 | 43.73546 | -79.57518 | 1864 ft | 140 kts | 226° |
| 2026-05-04 11:16 | 43.72867 | -79.58498 | 1591 ft | 140 kts | 225° |
| 2026-05-04 11:16 | 43.72191 | -79.59464 | 1274 ft | 137 kts | 225° |
| 2026-05-04 11:17 | 43.71552 | -79.60397 | 1210 ft | 135 kts | 226° |
| 2026-05-04 11:17 | 43.70895 | -79.61343 | 1041 ft | 138 kts | 226° |
| 2026-05-04 11:19 | 43.68470 | -79.64779 | 562 ft | 0 kts | 137° |
| 2026-05-04 11:19 | 43.68470 | -79.64778 | 562 ft | 1 kts | 137° |
| 2026-05-04 11:19 | 43.68424 | -79.64718 | 566 ft | 12 kts | 136° |
| 2026-05-04 11:20 | 43.68385 | -79.64622 | 568 ft | 12 kts | 81° |
| 2026-05-04 11:20 | 43.68429 | -79.64527 | 570 ft | 12 kts | 39° |
| 2026-05-04 11:20 | 43.68487 | -79.64447 | 564 ft | 12 kts | 47° |
| 2026-05-04 11:20 | 43.68545 | -79.64362 | 565 ft | 12 kts | 46° |
| 2026-05-04 11:22 | 43.68917 | -79.63821 | 571 ft | 10 kts | 46° |
| 2026-05-04 11:22 | 43.68965 | -79.63752 | 575 ft | 10 kts | 46° |
| 2026-05-04 11:23 | 43.69013 | -79.63683 | 569 ft | 11 kts | 46° |
| 2026-05-04 11:23 | 43.69030 | -79.63592 | 567 ft | 11 kts | 136° |
| 2026-05-04 11:24 | 43.68672 | -79.63163 | 562 ft | 12 kts | 140° |
| 2026-05-04 11:25 | 43.68613 | -79.63087 | 566 ft | 12 kts | 135° |
| 2026-05-04 11:25 | 43.68557 | -79.63008 | 561 ft | 11 kts | 133° |
| 2026-05-04 11:25 | 43.68505 | -79.62930 | 566 ft | 11 kts | 133° |
| 2026-05-04 11:26 | 43.68430 | -79.62763 | 564 ft | 10 kts | 81° |
| 2026-05-04 11:27 | 43.68652 | -79.62614 | 560 ft | 0 kts | 337° |